Time;durP1;ratioP1;P1;durP2;ratioP2;P2;SDS_P1;SDS_P2;PMS_P1;PMS_P2;Temp;Humidity;BMP_temperature;BMP_pressure;BME280_temperature;BME280_humidity;BME280_pressure;Samples;Min_cycle;Max_cycle;Signal;HPM_P1;HPM_P2
2023/03/25 00:00:20;;;;;;;2.17;0.35;;;10.30;99.90;;;;;;5075218;28;20024;-86
2023/03/25 00:02:48;;;;;;;1.33;0.30;;;10.30;99.90;;;;;;5075498;28;20028;-82
2023/03/25 00:05:16;;;;;;;1.50;0.35;;;10.30;99.90;;;;;;5065819;28;20012;-82
2023/03/25 00:07:43;;;;;;;3.53;0.50;;;10.30;99.90;;;;;;5087877;28;20453;-80
2023/03/25 00:10:10;;;;;;;1.55;0.30;;;10.20;99.90;;;;;;5075040;28;20037;-80
2023/03/25 00:12:36;;;;;;;1.48;0.40;;;10.20;99.90;;;;;;5074348;28;20031;-78
2023/03/25 00:15:02;;;;;;;1.88;0.40;;;10.10;99.90;;;;;;5075211;28;20021;-79
2023/03/25 00:17:30;;;;;;;2.33;0.50;;;10.10;99.90;;;;;;5075171;28;20040;-80
2023/03/25 00:20:01;;;;;;;0.80;0.38;;;10.10;99.90;;;;;;5075016;28;20107;-80
2023/03/25 00:22:26;;;;;;;1.48;0.30;;;10.10;99.90;;;;;;5069788;28;20025;-80
2023/03/25 00:24:52;;;;;;;1.02;0.30;;;10.10;99.90;;;;;;5055245;28;20405;-79
2023/03/25 00:27:18;;;;;;;3.33;0.57;;;10.10;99.90;;;;;;5055606;28;20067;-90
2023/03/25 00:29:45;;;;;;;4.15;0.73;;;10.10;99.90;;;;;;5056073;28;20021;-88
2023/03/25 00:32:12;;;;;;;2.50;0.57;;;10.10;99.90;;;;;;5055329;28;20021;-88
2023/03/25 00:34:46;;;;;;;3.35;0.57;;;10.00;99.90;;;;;;5054561;28;20099;-87
2023/03/25 00:37:16;;;;;;;4.30;0.63;;;10.10;99.90;;;;;;5054897;28;20116;-87
2023/03/25 00:39:43;;;;;;;1.25;0.40;;;10.10;99.90;;;;;;5054430;28;20033;-83
2023/03/25 00:42:10;;;;;;;3.38;0.50;;;10.10;99.90;;;;;;5055171;28;20021;-82
2023/03/25 00:44:35;;;;;;;1.58;0.40;;;10.10;99.90;;;;;;5068467;28;20020;-84
2023/03/25 00:47:01;;;;;;;1.50;0.50;;;10.10;99.90;;;;;;5074623;28;20025;-83
2023/03/25 00:49:27;;;;;;;3.83;0.60;;;10.10;99.90;;;;;;5074115;28;20452;-82
2023/03/25 00:51:55;;;;;;;3.13;0.77;;;10.10;99.90;;;;;;5075152;28;20023;-79
2023/03/25 00:54:21;;;;;;;1.98;0.50;;;10.10;99.90;;;;;;5087353;28;20106;-82
2023/03/25 00:56:47;;;;;;;2.55;0.43;;;10.20;99.90;;;;;;5053752;28;20072;-78
2023/03/25 00:59:13;;;;;;;2.78;0.80;;;10.10;99.90;;;;;;5054662;28;20032;-79
2023/03/25 01:01:39;;;;;;;3.05;0.63;;;10.10;99.90;;;;;;5054123;28;20108;-83
2023/03/25 01:04:11;;;;;;;1.20;0.50;;;10.10;99.90;;;;;;5054767;28;20056;-80
2023/03/25 01:06:42;;;;;;;2.70;0.68;;;10.10;99.90;;;;;;5069858;28;20015;-79
2023/03/25 01:09:10;;;;;;;4.28;0.75;;;10.10;99.90;;;;;;5092278;28;20035;-79
2023/03/25 01:11:37;;;;;;;2.63;0.50;;;10.10;99.90;;;;;;5082491;28;20088;-79
2023/03/25 01:14:05;;;;;;;2.58;0.85;;;10.10;99.90;;;;;;5077262;28;20016;-79
2023/03/25 01:16:31;;;;;;;2.65;0.68;;;10.10;99.90;;;;;;5073287;28;20354;-79
2023/03/25 01:18:57;;;;;;;3.22;0.50;;;10.10;99.90;;;;;;5074332;28;20025;-79
2023/03/25 01:21:23;;;;;;;2.53;0.50;;;10.10;99.90;;;;;;5074589;28;20082;-84
2023/03/25 01:23:49;;;;;;;1.98;0.40;;;10.10;99.90;;;;;;5073493;28;20017;-79
2023/03/25 01:26:15;;;;;;;3.95;0.80;;;10.20;99.90;;;;;;5073773;28;20027;-79
2023/03/25 01:28:41;;;;;;;4.03;0.47;;;10.20;99.90;;;;;;5074190;28;20151;-79
2023/03/25 01:31:10;;;;;;;1.45;0.43;;;10.20;99.90;;;;;;5073758;28;20020;-79
2023/03/25 01:33:36;;;;;;;1.67;0.32;;;10.20;99.90;;;;;;5072874;28;20446;-79
2023/03/25 01:36:01;;;;;;;1.00;0.50;;;10.20;99.90;;;;;;5073529;28;20021;-78
2023/03/25 01:38:29;;;;;;;2.33;0.45;;;10.10;99.90;;;;;;5073490;28;20040;-79
2023/03/25 01:40:55;;;;;;;2.50;0.57;;;10.00;99.90;;;;;;5073841;28;20032;-79
2023/03/25 01:43:21;;;;;;;2.40;0.60;;;9.80;99.90;;;;;;5073682;28;20072;-82
2023/03/25 01:45:47;;;;;;;2.33;0.60;;;9.70;99.90;;;;;;5073342;28;20536;-78
2023/03/25 01:48:19;;;;;;;0.88;0.28;;;9.60;99.90;;;;;;5073479;28;20400;-79
2023/03/25 01:50:51;;;;;;;1.17;0.40;;;9.50;99.90;;;;;;5073909;28;20739;-79
2023/03/25 01:53:17;;;;;;;1.08;0.20;;;9.40;99.90;;;;;;5074266;28;20028;-78
2023/03/25 01:55:44;;;;;;;1.15;0.28;;;9.40;99.90;;;;;;5073200;28;20679;-78
2023/03/25 01:58:12;;;;;;;1.42;0.63;;;9.40;99.90;;;;;;5074278;28;20059;-78
2023/03/25 02:00:42;;;;;;;2.92;0.40;;;9.30;99.90;;;;;;5072676;28;20017;-78
2023/03/25 02:03:10;;;;;;;1.85;0.40;;;9.30;99.90;;;;;;5072968;28;20021;-78
2023/03/25 02:06:04;;;;;;;2.85;0.50;;;9.30;99.90;;;;;;5072653;28;20024;-79
2023/03/25 02:08:36;;;;;;;1.95;0.32;;;9.30;99.90;;;;;;5072541;28;20028;-79
2023/03/25 02:11:02;;;;;;;2.67;0.60;;;9.20;99.90;;;;;;5073647;28;20024;-78
2023/03/25 02:13:28;;;;;;;1.02;0.30;;;9.20;99.90;;;;;;5072200;28;20420;-80
2023/03/25 02:16:16;;;;;;;1.27;0.30;;;9.10;99.90;;;;;;5072851;28;20027;-79
2023/03/25 02:18:55;;;;;;;0.90;0.30;;;9.10;99.90;;;;;;5073694;28;20051;-79
2023/03/25 02:21:49;;;;;;;0.88;0.40;;;9.10;99.90;;;;;;5073042;28;20369;-81
2023/03/25 02:24:36;;;;;;;2.85;0.40;;;9.10;99.90;;;;;;5073201;28;20020;-80
2023/03/25 02:27:13;;;;;;;1.75;0.20;;;9.00;99.90;;;;;;5072926;28;20035;-80
2023/03/25 02:29:57;;;;;;;2.05;0.52;;;9.00;99.90;;;;;;5072529;28;20028;-80
2023/03/25 02:32:57;;;;;;;0.82;0.35;;;9.00;99.90;;;;;;5074146;28;20020;-80
2023/03/25 02:36:00;;;;;;;0.75;0.13;;;8.90;99.90;;;;;;5072709;28;20042;-80
2023/03/25 02:39:15;;;;;;;0.30;0.20;;;8.90;99.90;;;;;;5071950;28;20128;-84
2023/03/25 02:41:45;;;;;;;1.10;0.30;;;8.90;99.90;;;;;;5041615;28;20452;-80
2023/03/25 02:44:20;;;;;;;1.70;0.20;;;8.90;99.90;;;;;;5072716;28;20070;-80
2023/03/25 02:46:54;;;;;;;2.58;0.30;;;8.80;99.90;;;;;;5072175;28;20031;-79
2023/03/25 02:49:58;;;;;;;1.52;0.30;;;8.80;99.90;;;;;;5072724;28;20174;-79
2023/03/25 02:52:28;;;;;;;2.00;0.30;;;8.80;99.90;;;;;;5011835;28;20052;-80
2023/03/25 02:55:00;;;;;;;0.52;0.22;;;8.90;99.90;;;;;;5059997;28;20028;-80
2023/03/25 02:57:27;;;;;;;;;;;8.80;99.90;;;;;;5074025;28;20025;-84
2023/03/25 02:59:56;;;;;;;0.65;0.25;;;8.90;99.90;;;;;;5073201;28;19900;-80
2023/03/25 03:02:24;;;;;;;0.20;0.20;;;8.80;99.90;;;;;;5072380;28;20024;-80
2023/03/25 03:04:53;;;;;;;2.72;0.28;;;8.80;99.90;;;;;;5071922;28;20040;-80
2023/03/25 03:07:48;;;;;;;1.05;0.45;;;8.80;99.90;;;;;;5071933;28;20028;-78
2023/03/25 03:10:29;;;;;;;1.08;0.30;;;8.80;99.90;;;;;;5071666;28;20466;-77
2023/03/25 03:13:07;;;;;;;0.60;0.45;;;8.80;99.90;;;;;;5073521;28;20051;-78
2023/03/25 03:15:51;;;;;;;0.40;0.20;;;8.80;99.90;;;;;;5071696;28;20020;-78
2023/03/25 03:18:33;;;;;;;0.70;0.20;;;8.80;99.90;;;;;;5073355;28;20074;-80
2023/03/25 03:21:10;;;;;;;0.52;0.20;;;8.80;99.90;;;;;;5072418;28;20020;-80
2023/03/25 03:24:03;;;;;;;0.30;0.20;;;8.70;99.90;;;;;;5071959;28;20024;-80
2023/03/25 03:26:36;;;;;;;1.00;0.22;;;8.80;99.90;;;;;;5057851;28;20033;-88
2023/03/25 03:29:16;;;;;;;1.65;0.30;;;8.70;99.90;;;;;;5071886;28;20016;-79
2023/03/25 03:32:03;;;;;;;1.92;0.30;;;8.70;99.90;;;;;;5072010;28;20098;-80
2023/03/25 03:34:55;;;;;;;0.75;0.30;;;8.70;99.90;;;;;;5071740;28;20017;-86
2023/03/25 03:37:27;;;;;;;3.95;0.60;;;8.70;99.90;;;;;;5072954;28;20033;-80
2023/03/25 03:39:56;;;;;;;0.47;0.30;;;8.70;99.90;;;;;;5071802;28;20089;-80
2023/03/25 03:42:29;;;;;;;1.52;0.40;;;8.70;99.90;;;;;;5072229;28;20021;-80
2023/03/25 03:45:00;;;;;;;1.45;0.30;;;8.70;99.90;;;;;;5071856;28;20040;-80
2023/03/25 03:47:31;;;;;;;1.38;0.20;;;8.70;99.90;;;;;;5074375;28;20020;-80
2023/03/25 03:50:14;;;;;;;0.50;0.28;;;8.80;99.90;;;;;;5075555;28;20032;-80
2023/03/25 03:52:53;;;;;;;1.05;0.25;;;8.80;99.90;;;;;;5074677;28;20063;-79
2023/03/25 03:55:40;;;;;;;1.30;0.30;;;8.80;99.90;;;;;;5075422;28;20111;-79
2023/03/25 03:58:15;;;;;;;0.85;0.30;;;8.80;99.90;;;;;;5076604;28;20020;-79
2023/03/25 04:00:48;;;;;;;1.30;0.20;;;8.80;99.90;;;;;;5074666;28;20503;-79
2023/03/25 04:03:23;;;;;;;2.10;0.30;;;8.80;99.90;;;;;;5075301;28;20020;-79
2023/03/25 04:05:57;;;;;;;1.17;0.40;;;8.80;99.90;;;;;;5075926;28;20020;-79
2023/03/25 04:08:41;;;;;;;3.30;0.57;;;8.80;99.90;;;;;;5075276;28;20361;-79
2023/03/25 04:11:14;;;;;;;1.35;0.38;;;8.70;99.90;;;;;;5075955;28;20028;-79
2023/03/25 04:13:43;;;;;;;0.30;0.20;;;8.80;99.90;;;;;;5074933;28;20378;-80
2023/03/25 04:16:09;;;;;;;0.73;0.30;;;8.70;99.90;;;;;;5075091;28;20020;-79
2023/03/25 04:18:35;;;;;;;1.23;0.50;;;8.80;99.90;;;;;;5074282;28;20480;-80
2023/03/25 04:21:00;;;;;;;1.38;0.40;;;8.80;99.90;;;;;;5075106;28;20056;-79
2023/03/25 04:23:30;;;;;;;5.55;3.00;;;8.80;99.90;;;;;;5074873;28;20070;-79
2023/03/25 04:25:56;;;;;;;1.75;0.47;;;8.90;99.90;;;;;;5074462;28;20066;-79
2023/03/25 04:28:25;;;;;;;5.43;0.60;;;8.90;99.90;;;;;;5074745;28;20449;-79
2023/03/25 04:30:54;;;;;;;0.80;0.20;;;9.00;99.90;;;;;;5074153;28;20060;-79
2023/03/25 04:33:21;;;;;;;2.85;0.35;;;9.00;99.90;;;;;;5074602;28;20020;-79
2023/03/25 04:35:49;;;;;;;2.00;0.50;;;9.00;99.90;;;;;;5074838;28;20028;-80
2023/03/25 04:38:15;;;;;;;2.10;0.57;;;9.00;99.90;;;;;;5074623;28;20044;-79
2023/03/25 04:40:45;;;;;;;4.53;0.50;;;9.10;99.90;;;;;;5074802;28;20128;-79
2023/03/25 04:43:12;;;;;;;4.53;0.70;;;9.10;99.90;;;;;;5074523;28;20031;-79
2023/03/25 04:45:37;;;;;;;1.88;0.60;;;9.10;99.90;;;;;;5073970;28;20028;-80
2023/03/25 04:48:04;;;;;;;3.30;0.47;;;9.20;99.90;;;;;;5074456;28;20037;-79
2023/03/25 04:50:31;;;;;;;4.35;0.95;;;9.20;99.90;;;;;;5074596;28;20035;-79
2023/03/25 04:52:59;;;;;;;1.38;0.52;;;9.20;99.90;;;;;;5074070;28;20024;-79
2023/03/25 04:55:25;;;;;;;3.80;0.50;;;9.20;99.90;;;;;;5074635;28;20032;-79
2023/03/25 04:57:52;;;;;;;2.38;0.70;;;9.20;99.90;;;;;;5073816;28;20073;-79
2023/03/25 05:00:21;;;;;;;1.95;0.40;;;9.20;99.90;;;;;;5074606;28;20091;-79
2023/03/25 05:02:48;;;;;;;1.90;0.93;;;9.20;99.90;;;;;;5073777;28;20048;-79
2023/03/25 05:05:17;;;;;;;2.58;0.55;;;9.20;99.90;;;;;;5075214;28;20438;-79
2023/03/25 05:07:45;;;;;;;4.28;0.60;;;9.20;99.90;;;;;;5074683;28;20025;-79
2023/03/25 05:10:11;;;;;;;2.28;0.50;;;9.20;99.90;;;;;;5073810;28;20123;-79
2023/03/25 05:12:37;;;;;;;6.97;0.80;;;9.20;99.90;;;;;;5073584;28;20020;-85
2023/03/25 05:15:03;;;;;;;3.42;0.70;;;9.30;99.90;;;;;;5073850;28;20449;-77
2023/03/25 05:17:28;;;;;;;2.42;0.40;;;9.30;99.90;;;;;;5074722;28;20031;-77
2023/03/25 05:19:55;;;;;;;2.85;0.80;;;9.30;99.90;;;;;;5073150;28;20028;-79
2023/03/25 05:22:22;;;;;;;1.75;0.35;;;9.30;99.90;;;;;;5073870;28;20029;-79
2023/03/25 05:24:47;;;;;;;1.92;0.70;;;9.20;99.90;;;;;;5073323;28;20525;-79
2023/03/25 05:27:13;;;;;;;3.45;0.57;;;9.20;99.90;;;;;;5073593;28;20032;-79
2023/03/25 05:29:39;;;;;;;3.70;1.30;;;9.20;99.90;;;;;;5073385;28;20017;-80
2023/03/25 05:32:05;;;;;;;3.75;0.60;;;9.20;99.90;;;;;;5073214;28;20488;-80
2023/03/25 05:34:30;;;;;;;4.18;0.60;;;9.30;99.90;;;;;;5074836;28;20077;-80
2023/03/25 05:36:56;;;;;;;1.92;0.60;;;9.30;99.90;;;;;;5073077;28;20020;-79
2023/03/25 05:39:23;;;;;;;2.30;0.70;;;9.30;99.90;;;;;;5073469;28;20428;-79
2023/03/25 05:41:49;;;;;;;4.65;0.70;;;9.40;99.90;;;;;;5073130;28;20029;-80
2023/03/25 05:44:17;;;;;;;1.60;0.40;;;9.40;99.90;;;;;;5074435;28;20070;-80
2023/03/25 05:46:43;;;;;;;8.43;0.90;;;9.50;99.90;;;;;;5072806;28;20066;-80
2023/03/25 05:49:09;;;;;;;5.90;0.70;;;9.50;99.90;;;;;;5074194;28;20084;-80
2023/03/25 05:51:38;;;;;;;3.28;0.73;;;9.50;99.90;;;;;;5073144;28;20028;-80
2023/03/25 05:54:09;;;;;;;7.43;1.05;;;9.50;99.90;;;;;;5073053;28;20021;-80
2023/03/25 05:56:35;;;;;;;5.47;0.90;;;9.60;99.90;;;;;;5072883;28;20024;-80
2023/03/25 05:59:02;;;;;;;4.72;0.73;;;9.60;99.90;;;;;;5072206;28;20039;-80
2023/03/25 06:01:28;;;;;;;5.10;0.93;;;9.60;99.90;;;;;;5072663;28;20146;-79
2023/03/25 06:03:54;;;;;;;6.05;0.70;;;9.60;99.90;;;;;;5073531;28;20021;-81
2023/03/25 06:06:20;;;;;;;3.72;0.85;;;9.50;99.90;;;;;;5072987;28;20024;-81
2023/03/25 06:08:49;;;;;;;3.97;0.60;;;9.60;99.90;;;;;;5072306;28;20115;-80
2023/03/25 06:11:15;;;;;;;5.03;0.85;;;9.60;99.90;;;;;;5072844;28;20028;-80
2023/03/25 06:13:48;;;;;;;7.43;0.93;;;9.60;99.90;;;;;;5072341;28;20038;-80
2023/03/25 06:16:17;;;;;;;5.47;1.15;;;9.60;99.90;;;;;;5072901;28;20047;-80
2023/03/25 06:18:49;;;;;;;4.95;1.50;;;9.50;99.90;;;;;;5072296;28;20024;-81
2023/03/25 06:21:16;;;;;;;8.45;1.25;;;9.40;99.90;;;;;;5072790;28;20027;-79
2023/03/25 06:23:42;;;;;;;8.98;1.20;;;9.40;99.90;;;;;;5073152;28;20017;-80
2023/03/25 06:26:08;;;;;;;4.70;0.95;;;9.30;99.90;;;;;;5072897;28;20127;-79
2023/03/25 06:28:33;;;;;;;5.95;1.08;;;9.30;99.90;;;;;;5073452;28;20020;-79
2023/03/25 06:31:02;;;;;;;5.07;1.10;;;9.30;99.90;;;;;;5072340;28;20020;-79
2023/03/25 06:33:27;;;;;;;5.10;0.90;;;9.30;99.90;;;;;;5072260;28;20077;-79
2023/03/25 06:35:53;;;;;;;4.78;0.70;;;9.20;99.90;;;;;;5072388;28;20029;-79
2023/03/25 06:38:20;;;;;;;2.38;0.50;;;9.20;99.90;;;;;;5072279;28;20048;-79
2023/03/25 06:40:46;;;;;;;2.40;0.70;;;9.30;99.90;;;;;;5072019;28;20092;-80
2023/03/25 06:43:12;;;;;;;2.67;0.50;;;9.30;99.90;;;;;;5072599;28;20016;-79
2023/03/25 06:45:38;;;;;;;3.20;0.60;;;9.40;99.90;;;;;;5084738;28;20341;-79
2023/03/25 06:48:04;;;;;;;4.57;0.68;;;9.40;99.90;;;;;;5092270;28;20036;-80
2023/03/25 06:50:30;;;;;;;2.72;0.50;;;9.30;99.90;;;;;;5092752;28;20488;-80
2023/03/25 06:52:56;;;;;;;2.83;0.40;;;9.30;99.90;;;;;;5093634;28;20498;-80
2023/03/25 06:55:22;;;;;;;4.60;0.50;;;9.30;99.90;;;;;;5093101;28;20453;-80
2023/03/25 06:57:48;;;;;;;3.40;0.68;;;9.40;99.90;;;;;;5091834;28;20031;-80
2023/03/25 07:00:19;;;;;;;1.23;0.60;;;9.40;99.90;;;;;;5092434;28;20027;-80
2023/03/25 07:02:45;;;;;;;2.97;0.47;;;9.40;99.90;;;;;;5092024;28;20399;-81
2023/03/25 07:05:10;;;;;;;3.08;0.57;;;9.40;99.90;;;;;;5093372;28;20028;-79
2023/03/25 07:07:36;;;;;;;3.13;0.60;;;9.50;99.90;;;;;;5092416;28;20028;-80
2023/03/25 07:10:02;;;;;;;3.80;0.60;;;9.50;99.90;;;;;;5091857;28;20221;-78
2023/03/25 07:12:28;;;;;;;4.80;0.63;;;9.60;99.90;;;;;;5093453;28;20063;-78
2023/03/25 07:14:56;;;;;;;4.70;0.45;;;9.60;99.90;;;;;;5092076;28;20061;-79
2023/03/25 07:17:22;;;;;;;2.10;0.50;;;9.60;99.90;;;;;;5092506;28;20397;-79
2023/03/25 07:19:48;;;;;;;1.85;0.50;;;9.80;99.90;;;;;;5092186;28;20031;-79
2023/03/25 07:22:14;;;;;;;2.22;0.43;;;9.90;99.90;;;;;;5093189;28;20020;-79
2023/03/25 07:24:39;;;;;;;3.13;0.40;;;10.10;99.90;;;;;;5097316;28;20391;-78
2023/03/25 07:27:05;;;;;;;6.43;0.57;;;10.20;99.90;;;;;;5095088;28;20052;-78
2023/03/25 07:29:30;;;;;;;3.97;0.40;;;10.10;99.90;;;;;;5096928;28;20364;-78
2023/03/25 07:31:56;;;;;;;2.15;0.47;;;10.10;99.90;;;;;;5095117;28;20020;-78
2023/03/25 07:34:22;;;;;;;3.55;0.50;;;10.10;99.90;;;;;;5096072;28;20439;-78
2023/03/25 07:36:47;;;;;;;2.30;0.63;;;10.00;99.90;;;;;;5095275;28;20112;-79
2023/03/25 07:39:13;;;;;;;3.92;0.40;;;10.00;99.90;;;;;;5095459;28;20135;-78
2023/03/25 07:41:39;;;;;;;3.30;0.40;;;9.90;99.90;;;;;;5096862;28;20048;-78
2023/03/25 07:44:04;;;;;;;1.95;0.50;;;9.90;99.90;;;;;;5095085;28;20093;-79
2023/03/25 07:46:30;;;;;;;2.70;0.57;;;9.90;99.90;;;;;;5095774;28;20062;-78
2023/03/25 07:48:56;;;;;;;2.35;0.40;;;10.10;99.90;;;;;;5095233;28;20055;-78
2023/03/25 07:51:21;;;;;;;2.53;0.38;;;10.10;99.90;;;;;;5096844;28;20033;-78
2023/03/25 07:53:47;;;;;;;2.58;0.50;;;10.20;99.90;;;;;;5094900;28;20111;-81
2023/03/25 07:56:14;;;;;;;2.15;0.43;;;10.10;99.90;;;;;;5096688;28;20453;-80
2023/03/25 07:58:40;;;;;;;3.13;0.45;;;10.20;99.90;;;;;;5096977;28;20081;-80
2023/03/25 08:01:07;;;;;;;0.40;0.40;;;10.30;99.90;;;;;;5095528;28;20028;-80
2023/03/25 08:03:33;;;;;;;2.53;0.50;;;10.30;99.90;;;;;;5095714;28;20028;-80
2023/03/25 08:06:01;;;;;;;5.00;0.63;;;10.40;99.90;;;;;;5075323;28;20048;-79
2023/03/25 08:08:28;;;;;;;3.28;0.50;;;10.50;99.90;;;;;;5075548;28;20029;-79
2023/03/25 08:10:54;;;;;;;2.45;0.38;;;10.40;99.90;;;;;;5074861;28;20131;-78
2023/03/25 08:13:20;;;;;;;1.98;0.43;;;10.40;99.90;;;;;;5075981;28;20021;-77
2023/03/25 08:15:46;;;;;;;1.77;0.47;;;10.30;99.90;;;;;;5074518;28;20016;-83
2023/03/25 08:18:12;;;;;;;2.72;0.47;;;10.40;99.90;;;;;;5074454;28;20031;-79
2023/03/25 08:20:37;;;;;;;4.28;0.57;;;10.30;99.90;;;;;;5075885;28;20099;-78
2023/03/25 08:23:09;;;;;;;0.88;0.30;;;10.20;99.90;;;;;;5075564;28;20028;-79
2023/03/25 08:25:35;;;;;;;0.70;0.35;;;10.10;99.90;;;;;;5075259;28;20020;-78
2023/03/25 08:28:01;;;;;;;1.10;0.38;;;10.10;99.90;;;;;;5074308;28;20473;-78
2023/03/25 08:30:26;;;;;;;3.50;0.40;;;10.10;99.90;;;;;;5074644;28;20024;-78
2023/03/25 08:32:54;;;;;;;2.53;0.70;;;10.10;99.90;;;;;;5074754;28;20445;-78
2023/03/25 08:35:22;;;;;;;1.73;0.40;;;10.10;99.90;;;;;;5074861;28;20449;-77
2023/03/25 08:37:48;;;;;;;1.67;0.40;;;10.10;99.90;;;;;;5074783;28;20087;-86
2023/03/25 08:40:17;;;;;;;2.50;0.57;;;10.10;99.90;;;;;;5074037;28;20052;-79
2023/03/25 08:42:43;;;;;;;2.45;0.60;;;10.10;99.90;;;;;;5074081;28;20107;-79
2023/03/25 08:45:09;;;;;;;1.60;0.40;;;10.00;99.90;;;;;;5075164;28;20044;-79
2023/03/25 08:47:35;;;;;;;1.05;0.30;;;9.90;99.90;;;;;;5075675;28;20510;-78
2023/03/25 08:50:01;;;;;;;1.52;0.30;;;9.90;99.90;;;;;;5075095;28;20028;-79
2023/03/25 08:52:26;;;;;;;1.98;0.43;;;9.90;99.90;;;;;;5073884;28;20058;-79
2023/03/25 08:54:52;;;;;;;3.38;0.40;;;9.90;99.90;;;;;;5073702;28;20101;-80
2023/03/25 08:57:17;;;;;;;3.20;0.50;;;9.90;99.90;;;;;;5070780;28;20028;-85
2023/03/25 08:59:43;;;;;;;3.13;0.47;;;9.90;99.90;;;;;;5085201;28;20463;-79
2023/03/25 09:02:11;;;;;;;0.30;0.22;;;9.90;99.90;;;;;;5090327;28;20027;-79
2023/03/25 09:04:38;;;;;;;1.88;0.40;;;9.80;99.90;;;;;;5080758;28;20373;-80
2023/03/25 09:07:06;;;;;;;1.52;0.50;;;10.00;99.90;;;;;;5083442;28;20028;-79
2023/03/25 09:09:32;;;;;;;2.83;0.60;;;10.10;99.90;;;;;;5076657;28;20021;-81
2023/03/25 09:11:57;;;;;;;1.35;0.50;;;10.10;99.90;;;;;;5085200;28;20023;-79
2023/03/25 09:14:23;;;;;;;2.47;0.52;;;10.10;99.90;;;;;;5090226;28;20039;-78
2023/03/25 09:16:49;;;;;;;1.40;0.50;;;10.10;99.90;;;;;;5082555;28;20052;-80
2023/03/25 09:19:14;;;;;;;0.60;0.35;;;10.10;99.90;;;;;;5087467;28;20442;-79
2023/03/25 09:21:40;;;;;;;3.30;0.60;;;10.20;99.90;;;;;;5089946;28;20433;-79
2023/03/25 09:24:07;;;;;;;0.32;0.30;;;10.20;99.90;;;;;;5091434;28;20039;-79
2023/03/25 09:26:33;;;;;;;1.35;0.55;;;10.20;99.90;;;;;;5076902;28;20024;-79
2023/03/25 09:28:59;;;;;;;0.75;0.20;;;10.10;99.90;;;;;;5092868;28;20515;-79
2023/03/25 09:31:25;;;;;;;2.17;0.40;;;10.10;99.90;;;;;;5079871;28;20025;-79
2023/03/25 09:33:51;;;;;;;0.60;0.40;;;10.10;99.90;;;;;;5087371;28;20108;-78
2023/03/25 09:36:17;;;;;;;1.42;0.22;;;10.10;99.90;;;;;;5089854;28;20024;-79
2023/03/25 09:38:42;;;;;;;0.90;0.30;;;10.10;99.90;;;;;;5077052;28;20392;-77
2023/03/25 09:41:24;;;;;;;3.85;0.30;;;10.20;99.90;;;;;;5068365;28;20529;-85
2023/03/25 09:44:12;;;;;;;1.42;0.50;;;10.20;99.90;;;;;;5088610;28;20023;-88
2023/03/25 09:46:39;;;;;;;2.75;0.50;;;10.30;99.90;;;;;;5079179;28;20025;-82
2023/03/25 09:49:21;;;;;;;4.90;0.45;;;10.30;99.90;;;;;;5082627;28;20028;-83
2023/03/25 09:51:49;;;;;;;1.63;0.52;;;10.20;99.90;;;;;;5080388;28;20024;-85
2023/03/25 09:54:30;;;;;;;1.63;0.40;;;10.40;99.90;;;;;;5092748;28;20487;-79
2023/03/25 09:57:01;;;;;;;1.70;0.30;;;10.40;99.90;;;;;;5091863;28;20008;-83
2023/03/25 09:59:47;;;;;;;1.58;0.45;;;10.30;99.90;;;;;;5073259;28;20024;-83
2023/03/25 10:02:28;;;;;;;2.67;0.80;;;10.30;99.90;;;;;;5074470;28;20020;-82
2023/03/25 10:05:28;;;;;;;2.40;0.50;;;10.30;99.90;;;;;;5074732;28;20020;-82
2023/03/25 10:08:15;;;;;;;0.50;0.35;;;10.50;99.90;;;;;;5077113;28;20543;-83
2023/03/25 10:11:00;;;;;;;1.13;0.20;;;10.60;99.90;;;;;;5093723;28;20468;-81
2023/03/25 10:13:58;;;;;;;1.48;0.32;;;10.90;99.90;;;;;;5093435;28;20020;-82
2023/03/25 10:16:35;;;;;;;1.38;0.40;;;11.00;99.90;;;;;;5091024;28;20016;-81
2023/03/25 10:19:24;;;;;;;2.22;0.60;;;11.10;99.90;;;;;;5088284;28;20059;-82
2023/03/25 10:22:04;;;;;;;3.22;0.50;;;11.10;99.90;;;;;;5081720;28;20016;-88
2023/03/25 10:24:35;;;;;;;2.47;0.50;;;11.00;99.90;;;;;;5073024;28;20040;-81
2023/03/25 10:27:02;;;;;;;2.72;0.50;;;11.00;99.90;;;;;;5080579;28;20544;-80
2023/03/25 10:29:38;;;;;;;4.28;0.68;;;11.10;99.90;;;;;;5092581;28;20024;-83
2023/03/25 10:32:15;;;;;;;2.22;0.68;;;11.10;99.90;;;;;;5085911;28;20020;-80
2023/03/25 10:34:49;;;;;;;1.00;0.57;;;11.10;99.90;;;;;;5087789;28;20051;-79
2023/03/25 10:37:27;;;;;;;2.17;0.50;;;11.00;99.90;;;;;;5087671;28;20065;-81
2023/03/25 10:40:13;;;;;;;2.20;0.50;;;11.10;99.90;;;;;;5080244;28;20463;-81
2023/03/25 10:43:04;;;;;;;2.55;0.50;;;11.10;99.90;;;;;;5086228;28;20016;-82
2023/03/25 10:45:31;;;;;;;2.33;0.60;;;11.20;99.90;;;;;;5086767;28;20046;-84
2023/03/25 10:48:08;;;;;;;3.13;0.73;;;11.40;99.90;;;;;;5092374;28;20299;-84
2023/03/25 10:50:34;;;;;;;5.22;0.50;;;11.50;99.90;;;;;;5083890;28;20031;-84
2023/03/25 10:53:00;;;;;;;2.63;0.60;;;11.50;99.90;;;;;;5077560;28;20418;-84
2023/03/25 10:55:31;;;;;;;3.50;0.80;;;11.60;99.90;;;;;;5086883;28;20020;-81
2023/03/25 10:57:57;;;;;;;2.57;0.47;;;11.60;99.90;;;;;;5080275;28;20567;-81
2023/03/25 11:00:25;;;;;;;3.30;0.52;;;11.80;99.90;;;;;;5089468;28;20304;-82
2023/03/25 11:02:51;;;;;;;4.07;1.17;;;12.00;99.90;;;;;;5087977;28;20024;-89
2023/03/25 11:05:19;;;;;;;3.10;1.10;;;12.10;99.90;;;;;;5090045;28;20073;-82
2023/03/25 11:08:02;;;;;;;4.20;1.00;;;12.10;99.90;;;;;;5079832;28;20028;-82
2023/03/25 11:10:33;;;;;;;2.80;1.23;;;12.10;99.90;;;;;;5086668;28;20020;-82
2023/03/25 11:13:03;;;;;;;2.33;0.70;;;12.10;99.90;;;;;;5093755;28;20020;-82
2023/03/25 11:15:34;;;;;;;2.92;0.70;;;12.00;99.90;;;;;;5086220;28;20032;-83
2023/03/25 11:18:19;;;;;;;4.70;0.70;;;11.90;99.90;;;;;;5086062;28;20105;-84
2023/03/25 11:20:59;;;;;;;4.03;0.75;;;11.80;99.90;;;;;;5066185;28;20024;-84
2023/03/25 11:23:36;;;;;;;4.03;0.50;;;11.80;99.90;;;;;;5086768;28;20163;-88
2023/03/25 11:26:17;;;;;;;2.78;0.52;;;11.80;99.90;;;;;;5083073;28;20070;-85
2023/03/25 11:28:55;;;;;;;2.23;0.57;;;11.90;99.90;;;;;;5074568;28;20036;-84
2023/03/25 11:31:25;;;;;;;2.10;0.50;;;11.90;99.90;;;;;;5072806;28;20020;-79
2023/03/25 11:34:19;;;;;;;3.72;0.60;;;12.00;99.90;;;;;;5076500;28;20097;-84
2023/03/25 11:36:51;;;;;;;2.30;0.60;;;12.10;99.90;;;;;;5080882;28;20015;-84
2023/03/25 11:39:33;;;;;;;3.72;0.60;;;12.20;99.90;;;;;;5095688;28;20133;-85
2023/03/25 11:42:08;;;;;;;0.63;0.20;;;12.30;99.90;;;;;;5089271;28;20031;-80
2023/03/25 11:44:33;;;;;;;4.63;0.73;;;12.30;99.90;;;;;;5090069;28;20024;-83
2023/03/25 11:47:06;;;;;;;3.13;0.90;;;12.60;99.90;;;;;;5096812;28;20016;-82
2023/03/25 11:49:40;;;;;;;3.47;0.65;;;12.90;99.90;;;;;;5090072;28;20035;-81
2023/03/25 11:52:11;;;;;;;3.55;0.40;;;12.90;99.90;;;;;;5085590;28;20162;-82
2023/03/25 11:54:38;;;;;;;1.65;0.30;;;12.90;99.90;;;;;;5084689;28;20115;-82
2023/03/25 11:57:09;;;;;;;7.57;1.10;;;12.70;99.90;;;;;;5087829;28;20039;-82
2023/03/25 11:59:44;;;;;;;2.33;0.30;;;12.50;99.90;;;;;;5075901;28;20078;-83
2023/03/25 12:02:17;;;;;;;1.20;0.30;;;12.60;99.90;;;;;;5075242;28;20174;-82
2023/03/25 12:05:11;;;;;;;3.80;0.50;;;12.60;99.90;;;;;;5071868;28;20029;-82
2023/03/25 12:07:48;;;;;;;4.20;0.75;;;12.40;99.90;;;;;;5085009;28;20038;-82
2023/03/25 12:10:49;;;;;;;1.05;0.40;;;12.60;99.90;;;;;;5078190;28;20024;-82
2023/03/25 12:13:33;;;;;;;0.93;0.30;;;12.50;99.90;;;;;;5082012;28;20027;-81
2023/03/25 12:16:12;;;;;;;0.20;0.20;;;12.70;99.90;;;;;;5079467;28;20021;-82
2023/03/25 12:18:47;;;;;;;1.23;0.35;;;12.80;99.90;;;;;;5096368;28;20072;-81
2023/03/25 12:21:34;;;;;;;2.67;0.60;;;12.90;99.90;;;;;;5086397;28;20016;-81
2023/03/25 12:24:24;;;;;;;0.90;0.30;;;13.20;99.90;;;;;;5072157;28;20012;-81
2023/03/25 12:27:18;;;;;;;2.03;0.50;;;13.60;99.90;;;;;;5073711;28;20021;-81
2023/03/25 12:30:09;;;;;;;1.95;0.60;;;13.70;99.90;;;;;;5091409;28;20464;-83
2023/03/25 12:33:00;;;;;;;2.90;0.73;;;14.10;99.90;;;;;;5068129;28;20527;-82
2023/03/25 12:35:46;;;;;;;1.42;0.50;;;14.20;99.90;;;;;;5082135;28;20031;-81
2023/03/25 12:38:19;;;;;;;2.33;0.50;;;13.80;99.90;;;;;;5089121;28;20056;-82
2023/03/25 12:41:00;;;;;;;1.17;0.30;;;13.50;99.90;;;;;;5086118;28;20031;-79
2023/03/25 12:43:51;;;;;;;2.47;0.50;;;13.90;99.90;;;;;;5089326;28;20076;-83
2023/03/25 12:46:26;;;;;;;1.90;0.30;;;14.10;99.90;;;;;;5092563;28;20012;-81
2023/03/25 12:49:02;;;;;;;1.13;0.30;;;14.60;99.90;;;;;;5081099;28;20067;-82
2023/03/25 12:51:38;;;;;;;0.40;0.30;;;14.50;99.90;;;;;;5081120;28;20042;-80
2023/03/25 12:54:34;;;;;;;4.78;0.47;;;14.40;99.90;;;;;;5092315;28;20028;-80
2023/03/25 12:57:14;;;;;;;3.38;0.77;;;14.30;99.00;;;;;;5072669;28;20012;-80
2023/03/25 12:59:59;;;;;;;3.17;0.50;;;14.30;98.40;;;;;;5084568;28;20126;-81
2023/03/25 13:03:11;;;;;;;4.85;0.77;;;14.50;96.70;;;;;;5069685;28;20043;-81
2023/03/25 13:05:55;;;;;;;2.47;0.60;;;14.50;94.60;;;;;;5071537;28;20139;-83
2023/03/25 13:08:31;;;;;;;2.92;0.47;;;15.20;91.40;;;;;;5085661;28;20032;-84
2023/03/25 13:11:20;;;;;;;3.28;0.55;;;14.80;91.40;;;;;;5087249;28;20030;-82
2023/03/25 13:13:48;;;;;;;4.47;0.70;;;14.50;91.70;;;;;;5084981;28;20055;-81
2023/03/25 13:16:19;;;;;;;1.50;0.55;;;14.50;92.30;;;;;;5075327;28;20039;-84